Tiempo atmosférico en la estación meteorológica de La Covatilla, estación de esquí, Salamanca (1960 m.)



Fecha
DESCASC
Temp. máxima en grados centígrados (hora)
DESCASC
Temp. mínima en grados centígrados (hora)
DESCASC
Temp. media en grados centígrados
DESCASC
Racha de viento máxima en m/sg (hora)
DESCASC
Velocidad máxima media en intervalos de 10 minutos(hora)
DESCASC
Precipitaciones diarias en mm
DESCASC
Precipitaciones de 00:00 a 06:00 en mm
DESCASC
Precipitaciones de 06:00 a 12:00 en mm
DESCASC
Precipitaciones de 12:00 a 18:00 en mm
DESCASC
Precipitaciones de 18:00 a 24:00 en mm
DESCASC
16-01-2020 3.3 (12:40) -0.3 (23:59) 1.5 27.78 (21:50) 20.28 (22:20) 2.4 0.4 0.8 0 1.2
15-01-2020 2.6 (22:20) -1 (00:50) 0.8 27.5 (05:20) 16.94 (07:10) 7.4 0 5 1.8 0.6
14-01-2020 7.2 (10:50) -0.7 (08:20) 3.2 23.61 (19:00) 15.28 (19:10) 0 0 0 0 0
13-01-2020 8.1 (13:20) 1.1 (03:00) 4.6 15 (21:10) 10.28 (22:00) 0 0 0 0 0
12-01-2020 10.4 (17:00) 0.8 (19:00) 5.6 6.67 (12:50) 4.72 (12:10) 0 0 0 0 0
11-01-2020 5.7 (15:30) -3.2 (-00:0) 1.2 11.67 (00:20) 8.89 (00:10) 0 0 0 0 0
10-01-2020 1.7 (23:59) -5 (-00:0) -1.6 14.44 (14:30) 11.11 (19:10) 0 0 0 0 0
09-01-2020 8.3 (11:00) -1.7 (-00:0) 3.3 12.78 (21:30) 8.33 (19:20) 0 0 0 0 0
08-01-2020 14.1 (14:10) 2.3 (00:00) 8.2 4.72 (06:00) 3.89 (06:10) 0 0 0 0 0
07-01-2020 12.8 (13:40) 1.9 (00:00) 7.4 5 (04:40) 4.17 (04:30) 0 0 0 0 0
06-01-2020 12.8 (14:50) 0.7 (00:00) 6.8 6.11 (06:20) 4.17 (06:00) 0 0 0 0 0
05-01-2020 11 (16:30) 2.5 (00:00) 6.8 8.61 (07:10) 6.39 (07:40) 0 0 0 0 0
04-01-2020 7.4 (22:40) -1.9 (-00:0) 2.8 13.89 (11:10) 10.28 (17:40) 0 0 0 0 0
03-01-2020 9.3 (13:00) 0.8 (00:00) 5.1 10.28 (08:10) 7.5 (08:10) 0 0 0 0 0
02-01-2020 14.2 (12:40) 3.3 (00:00) 8.7 9.17 (23:20) 6.11 (23:59) 0 0 0 0 0
01-01-2020 15.3 (12:20) 3.7 (00:00) 9.5 6.11 (23:59) 4.72 (23:59) 0 0 0 0 0
31-12-2019 14.7 (14:40) 3.9 (00:00) 9.3 7.22 (04:50) 5 (07:10) 0 0 0 0 0
30-12-2019 14.5 (13:40) 6.1 (00:00) 10.3 6.39 (11:10) 4.44 (10:40) 0 0 0 0 0
29-12-2019 14.9 (12:10) 6.9 (00:00) 10.9 6.67 (21:30) 4.17 (16:10) 0 0 0 0 0
28-12-2019 15.4 (15:50) 4.5 (00:00) 9.9 7.5 (11:20) 5.56 (10:10) 0 0 0 0 0
27-12-2019 14.7 (12:40) 3.4 (00:00) 9 7.5 (00:10) 5.83 (00:40) 0 0 0 0 0
26-12-2019 11.3 (13:50) 2.2 (00:00) 6.8 -- (--) -- (--) 0 0 0 0 0
25-12-2019 12.3 (13:00) 6.1 (00:00) 9.2 -- (--) -- (--) 0 0 0 0 0
24-12-2019 11.9 (13:00) 5.6 (07:30) 8.7 -- (--) -- (--) 0 0 0 0 0
23-12-2019 8.3 (14:00) 0.2 (00:00) 4.3 -- (--) -- (--) 0 0 0 0 0
22-12-2019 -- (--) -- (--) -- -- (--) -- (--) -- 0.4 0.4 -- --
21-12-2019 7.4 (10:10) 0.4 (19:10) 3.9 -- (--) -- (--) 37.2 4.8 17.6 14 0.8
20-12-2019 6.3 (18:40) 1.4 (00:00) 3.9 -- (--) -- (--) 118.6 45.6 1.2 35 36.8

Gráficas

Temp. máximas Temp. mínimas Temp. medias Precipitaciones Rachas de viento máximas Velocidades máximas media en intervalos de 10 minutos

Datos horarios

Fecha y hora oficial Temperatura (ºC) Velocidad del viento (km/h) Dirección del viento Racha (km/h) Dirección de racha Precipitación (mm) Presión (hPa) Tendencia (hPa) Humedad (%)
2020-01-18 23:00:00 -2 27 Oeste 55 Oeste 0 804.7 0.7 --
2020-01-18 22:00:00 -0.7 23 Oeste 54 Oeste 0 804.5 0.5 --
2020-01-18 21:00:00 -0.3 30 Oeste 62 Sudoeste 0 804.3 0.4 --
2020-01-18 20:00:00 0.2 41 Sudoeste 63 Oeste 0.2 804 -1.1 100
2020-01-18 19:00:00 0.8 44 Sudoeste 91 Sudoeste 0 804 -1.9 99
2020-01-18 18:00:00 3.3 55 Sudoeste 94 Sudoeste 0 803.9 -3.2 42
2020-01-18 17:00:00 3.8 49 Sudoeste 80 Sudoeste 0 805.1 -2.7 58
2020-01-18 16:00:00 5.1 42 Sudoeste 65 Sudoeste 0 805.9 -2.6 64
2020-01-18 15:00:00 6.1 26 Oeste 54 Oeste 0 807.1 -2 74
2020-01-18 14:00:00 5.6 33 Sudoeste 56 Sudoeste 0 807.8 -1.3 81
2020-01-18 13:00:00 5.7 40 Sudoeste 69 Sudoeste 0 808.5 -0.1 79
2020-01-18 12:00:00 5.9 43 Sudoeste 83 Sudoeste 0 809.1 1.3 80
2020-01-18 11:00:00 4.8 44 Sudoeste 77 Sudoeste 0 809.1 1.1 92
2020-01-18 10:00:00 4.5 52 Sudoeste 96 Sudoeste 0 808.6 -0.8 90
2020-01-18 09:00:00 4 65 Sudoeste 97 Sudoeste 0.6 807.8 -3.1 88
2020-01-18 08:00:00 4 65 Sudoeste 108 Sudoeste 5 808 -2.5 91
2020-01-18 07:00:00 0.5 19 Sudoeste 47 Sudoeste 0 809.4 -1.3 98
2020-01-18 06:00:00 -1 9 Sudoeste 22 Sudoeste 0 810.9 0.3 100
2020-01-18 05:00:00 -0.3 19 Sudoeste 47 Sudoeste 0 810.5 -0.5 100
2020-01-18 04:00:00 0.1 24 Sudoeste 51 Sudoeste 0 810.7 -1 97
2020-01-18 03:00:00 1.9 33 Oeste 52 Oeste 0 810.6 -1.7 26
2020-01-18 02:00:00 3.3 31 Sudoeste 44 Sudoeste 0 811 -1.5 20
2020-01-18 01:00:00 4.3 25 Sudoeste 44 Sudoeste 0 811.7 -1.1 19
2020-01-18 00:00:00 3 14 Sudoeste 26 Sudoeste 0 812.3 -1 23
2020-01-17 23:00:00 2.7 14 Sudoeste 26 Sur 0 812.5 -1.2 25
2020-01-17 22:00:00 2.3 14 Sudoeste 26 Sur 0 812.8 -0.2 27
2020-01-17 21:00:00 1.4 14 Sudoeste 28 Sur 0 813.3 0.7 30
2020-01-17 20:00:00 -0.2 18 Sudoeste 24 Sudoeste 0 813.7 1.2 36
2020-01-17 19:00:00 -0.6 15 Sudoeste 21 Sudoeste 0 813 0.8 40
2020-01-17 18:00:00 0.1 16 Sudoeste 23 Sudoeste 0 812.6 0.5 37
2020-01-17 17:00:00 1.8 18 Sudoeste 25 Sudoeste 0 812.5 0.1 47
2020-01-17 16:00:00 3.2 15 Sudoeste 24 Oeste 0 812.2 -0.3 43
2020-01-17 15:00:00 2.3 16 Sudoeste 25 Sudoeste 0 812.1 -0.5 54
2020-01-17 14:00:00 0.9 17 Sudoeste 33 Sudoeste 0 812.4 0.3 98
2020-01-17 13:00:00 0.9 21 Sudoeste 35 Sudoeste 0 812.5 1.3 100
2020-01-17 12:00:00 0 21 Oeste 35 Oeste 0.2 812.6 1.9 --
2020-01-17 11:00:00 -0.1 22 Oeste 43 Oeste 0.2 812.1 2.4 --
2020-01-17 10:00:00 -0.1 30 Sudoeste 48 Oeste 0 811.2 2 --
2020-01-17 09:00:00 -0.4 30 Oeste 61 Sudoeste 0 810.7 1.7 --
2020-01-17 08:00:00 -0.5 36 Sudoeste 55 Sudoeste 0 809.7 1.3 --
2020-01-17 07:00:00 -0.7 36 Sudoeste 61 Sudoeste 0 809.2 1.2 100
2020-01-17 06:00:00 -1 36 Sudoeste 64 Sudoeste 0 809 1.1 100
2020-01-17 05:00:00 -0.8 44 Sudoeste 69 Sudoeste 0 808.4 0.6 96
2020-01-17 04:00:00 0 47 Sudoeste 71 Sudoeste 0 808 0.4 82
2020-01-17 03:00:00 0.3 46 Sudoeste 71 Sudoeste 0 807.9 0.8 70
2020-01-17 02:00:00 -0.5 53 Sudoeste 71 Sudoeste 0 807.8 1.3 74
2020-01-17 01:00:00 -0.1 50 Sudoeste 77 Sudoeste 0 807.6 1.5 78
2020-01-17 00:00:00 -0.3 53 Sudoeste 84 Sudoeste 0 807.1 1 100
2020-01-16 23:00:00 0.4 57 Sudoeste 97 Sudoeste 0.8 806.5 0.7 100
2020-01-16 22:00:00 0.5 67 Sudoeste 100 Sudoeste 0.4 806.1 0.5 96
2020-01-16 21:00:00 0.7 62 Sudoeste 92 Sudoeste 0 806.1 0.8 86
2020-01-16 20:00:00 0.8 57 Sudoeste 97 Sudoeste 0 805.8 0.9 79
2020-01-16 19:00:00 0.3 53 Sudoeste 89 Sudoeste 0 805.6 -0.1 80
2020-01-16 18:00:00 1.5 52 Sudoeste 93 Sudoeste 0 805.3 -0.3 51
2020-01-16 17:00:00 1.9 60 Sudoeste 91 Sudoeste 0 804.9 -1.4 43
2020-01-16 16:00:00 1.8 50 Sudoeste 83 Sudoeste 0 805.7 -1.8 53
2020-01-16 15:00:00 2 55 Sur 84 Sur 0 805.6 -2.9 58
2020-01-16 14:00:00 2.4 49 Sur 81 Sur 0 806.3 -2.6 57
2020-01-16 13:00:00 2.6 44 Sudoeste 70 Sudoeste 0 807.5 -0.8 55
2020-01-16 12:00:00 2.9 28 Sudoeste 62 Sudoeste 0 808.5 0.3 52
2020-01-16 11:00:00 2.5 24 Sudoeste 61 Sudoeste 0 808.9 0.9 61
2020-01-16 10:00:00 0.9 27 Sudoeste 51 Sur 0 808.3 0.6 77
2020-01-16 09:00:00 0.9 18 Sudoeste 58 Sur 0 808.2 0.5 94
2020-01-16 08:00:00 1.6 31 Sudoeste 62 Sudoeste 0.4 808 -0.2 100
2020-01-16 07:00:00 2.2 29 Sur 55 Sur 0.4 807.7 -0.7 94
2020-01-16 06:00:00 2.3 30 Sur 54 Sur 0.2 807.7 -0.8 95
2020-01-16 05:00:00 2.5 25 Sur 50 Sur 0.2 808.2 -0.5 96
2020-01-16 04:00:00 2.4 26 Sur 47 Sur 0 808.4 -0.4 99
2020-01-16 03:00:00 2.4 23 Sur 46 Sudoeste 0 808.5 -0.6 99
2020-01-16 02:00:00 2.1 27 Sur 44 Sur 0 808.7 -0.3 99
2020-01-16 01:00:00 2.3 26 Sur 48 Sur 0 808.8 0.1 99
2020-01-16 00:00:00 2.3 28 Sudoeste 46 Sudoeste 0 809.1 0.3 99
2020-01-15 23:00:00 2.2 31 Sudoeste 47 Sudoeste 0.2 809 0.5 99
2020-01-15 22:00:00 2.2 28 Sudoeste 47 Sudoeste 0 808.7 0.8 99
2020-01-15 21:00:00 2.3 31 Sudoeste 49 Sudoeste 0.2 808.8 1.8 100
2020-01-15 20:00:00 2.3 30 Sudoeste 56 Sudoeste 0.2 808.5 1.9 100
2020-01-15 19:00:00 1.9 31 Sudoeste 67 Sudoeste 0 807.9 1.6 100
2020-01-15 18:00:00 1.9 45 Sudoeste 65 Sudoeste 0 807 1.2 100
2020-01-15 17:00:00 2 47 Sudoeste 67 Sudoeste 0 806.6 0.7 100
2020-01-15 16:00:00 2.3 38 Sudoeste 71 Sudoeste 0 806.3 0.3 100
2020-01-15 15:00:00 2.2 42 Sudoeste 74 Sudoeste 0.2 805.8 0.2 100
2020-01-15 14:00:00 2.1 39 Sudoeste 71 Sudoeste 0.2 805.9 1 100
2020-01-15 13:00:00 1.9 47 Sudoeste 79 Sudoeste 1.4 806 2.1 100
2020-01-15 12:00:00 1.8 51 Sudoeste 82 Sudoeste 2 805.6 2.6 100
2020-01-15 11:00:00 1.1 45 Sudoeste 95 Oeste 1 804.9 2.6 100
2020-01-15 10:00:00 1.1 45 Sudoeste 89 Sudoeste 0.8 803.9 2.7 100
2020-01-15 09:00:00 0.8 48 Sudoeste 85 Sudoeste 1 803 0.9 100
2020-01-15 08:00:00 1.1 50 Sudoeste 89 Sudoeste 0 802.3 0.1 97
2020-01-15 07:00:00 0.4 54 Sudoeste 87 Sudoeste 0.2 801.2 -1.6 100
2020-01-15 06:00:00 0.3 43 Sudoeste 99 Oeste 0 802.1 -0.8 96
2020-01-15 05:00:00 0.6 46 Sudoeste 89 Sudoeste 0 802.2 -0.8 77
2020-01-15 04:00:00 0.1 45 Sudoeste 80 Sudoeste 0 802.8 0 69
2020-01-15 03:00:00 -0.4 45 Sudoeste 84 Sudoeste 0 802.9 -0.3 77
2020-01-15 02:00:00 -0.8 47 Sudoeste 90 Sudoeste 0 803 0 92
2020-01-15 01:00:00 -0.8 50 Sudoeste 94 Oeste 0 802.8 -0.4 92
2020-01-15 00:00:00 0.8 32 Sudoeste 70 Oeste 0 803.2 0.2 87
2020-01-14 23:00:00 0.8 30 Sudoeste 70 Sudoeste 0 803 0.4 91
2020-01-14 22:00:00 1 39 Sudoeste 73 Oeste 0 803.2 0.9 88
2020-01-14 21:00:00 0.7 47 Sudoeste 78 Sudoeste 0 803 0.4 90
2020-01-14 20:00:00 1.3 48 Sudoeste 81 Sudoeste 0 802.6 -0.3 89
2020-01-14 19:00:00 1.8 53 Sudoeste 85 Oeste 0 802.3 -0.8 83
2020-01-14 18:00:00 1.8 49 Sudoeste 73 Sudoeste 0 802.6 -0.9 81
2020-01-14 17:00:00 0.3 35 Oeste 65 Oeste 0 802.9 -0.9 90
2020-01-14 16:00:00 1.1 44 Sudoeste 69 Sudoeste 0 803.1 -1.2 77
2020-01-14 15:00:00 1.4 25 Oeste 52 Oeste 0 803.5 -1.3 83
2020-01-14 14:00:00 1.9 32 Sudoeste 48 Oeste 0 803.8 -0.7 79
2020-01-14 13:00:00 1.7 27 Oeste 35 Oeste 0 804.3 0.1 77
2020-01-14 12:00:00 1.3 21 Oeste 35 Sudoeste 0 804.8 0.7 81
2020-01-14 11:00:00 6.6 22 Sudoeste 33 Sudoeste 0 804.5 0.4 27
2020-01-14 10:00:00 5.6 20 Sudoeste 31 Sudoeste 0 804.2 0.2 15
2020-01-14 09:00:00 -0.1 4 Sudoeste 14 Oeste 0 804.1 0.2 32
2020-01-14 08:00:00 -0.1 11 Oeste 15 Oeste 0 804.1 -0.1 31
2020-01-14 07:00:00 2.2 11 Sudoeste 32 Sudoeste 0 804 -0.5 16
2020-01-14 06:00:00 2.9 22 Sudoeste 35 Oeste 0 803.9 -0.6 24
2020-01-14 05:00:00 3.3 26 Sudoeste 44 Sudoeste 0 804.2 -0.7 22
2020-01-14 04:00:00 3.1 30 Sudoeste 42 Sudoeste 0 804.5 -0.8 33
2020-01-14 03:00:00 3 27 Sudoeste 40 Sudoeste 0 804.5 -1 33
2020-01-14 02:00:00 2.8 27 Sudoeste 39 Sudoeste 0 804.9 -0.8 36
2020-01-14 01:00:00 2.8 29 Sudoeste 49 Sudoeste 0 805.3 -0.1 35
2020-01-14 00:00:00 3 33 Sudoeste 49 Sudoeste 0 805.5 -0.2 33
2020-01-13 23:00:00 2.8 29 Sudoeste 48 Sudoeste 0 805.7 0.1 36
2020-01-13 22:00:00 4.2 37 Sudoeste 54 Sudoeste 0 805.4 -0.3 32
2020-01-13 21:00:00 4 30 Sudoeste 51 Sudoeste 0 805.7 -0.1 42
2020-01-13 20:00:00 4.3 32 Sudoeste 44 Sudoeste 0 805.6 -0.3 32
2020-01-13 19:00:00 3.6 29 Sudoeste 41 Sudoeste 0 805.7 -0.5 32
2020-01-13 18:00:00 4 27 Sudoeste 42 Sudoeste 0 805.8 -0.6 37
2020-01-13 17:00:00 5.5 31 Sudoeste 43 Sudoeste 0 805.9 -1 35
2020-01-13 16:00:00 5 33 Sudoeste 46 Sudoeste 0 806.2 -1.4 11
2020-01-13 15:00:00 6.5 30 Sudoeste 43 Sudoeste 0 806.4 -1.9 23
2020-01-13 14:00:00 7.6 30 Sudoeste 43 Sudoeste 0 806.9 -1.3 14
2020-01-13 13:00:00 8 27 Sudoeste 39 Sudoeste 0 807.6 -0.5 24
2020-01-13 12:00:00 7.1 21 Sudoeste 35 Sudoeste 0 808.3 0.3 22
2020-01-13 11:00:00 6.7 24 Sudoeste 34 Sudoeste 0 808.2 0.1 21
2020-01-13 10:00:00 5.8 22 Sudoeste 34 Sudoeste 0 808.1 -0.3 21
2020-01-13 09:00:00 5.1 22 Sudoeste 35 Sudoeste 0 808 -0.6 17
2020-01-13 08:00:00 4.7 22 Sudoeste 31 Sudoeste 0 808.1 -0.9 22
2020-01-13 07:00:00 3.5 21 Sudoeste 26 Sudoeste 0 808.4 -1.2 28
2020-01-13 06:00:00 3.5 20 Sudoeste 27 Sudoeste 0 808.6 -1.4 21
2020-01-13 05:00:00 3.9 22 Sudoeste 28 Sudoeste 0 809 -1.4 16
2020-01-13 04:00:00 3.4 23 Sudoeste 28 Sudoeste 0 809.6 -1.5 15
2020-01-13 03:00:00 1.9 12 Sudoeste 21 Sur 0 810 -1.6 14
2020-01-13 02:00:00 3.4 12 Sudoeste 18 Sudoeste 0 810.4 -1.3 23
2020-01-13 01:00:00 3.2 8 Sudeste 14 Sur 0 811.1 -0.9 29
2020-01-13 00:00:00 2.2 10 Sur 17 Sudoeste 0 811.6 -0.6 33
2020-01-12 23:00:00 1.6 13 Sudoeste 19 Sudoeste 0 811.7 -0.7 38
2020-01-12 22:00:00 1.8 15 Sudoeste 20 Sudoeste 0 812 -0.1 40
2020-01-12 21:00:00 2.2 12 Sudoeste 15 Sudoeste 0 812.2 0.4 43
2020-01-12 20:00:00 2.4 10 Sur 14 Sur 0 812.4 0.8 38
2020-01-12 19:00:00 0.8 6 Sur 12 Sudeste 0 812.1 0.5 43
2020-01-12 18:00:00 3.5 6 Sudeste 10 Sudeste 0 811.8 0 36
2020-01-12 17:00:00 10.3 2 Este 17 Este 0 811.6 -0.6 22
2020-01-12 16:00:00 9 14 Este 19 Este 0 811.6 -1.4 26
2020-01-12 15:00:00 9.1 14 Este 18 Este 0 811.8 -1.8 24
2020-01-12 14:00:00 8.5 14 Este 21 Nordeste 0 812.2 -1.4 22
2020-01-12 13:00:00 8.6 15 Este 24 Este 0 813 -0.3 21
2020-01-12 12:00:00 8.1 15 Este 24 Este 0 813.6 0.5 26
2020-01-12 11:00:00 8.5 10 Este 19 Este 0 813.6 0.9 21
2020-01-12 10:00:00 5.2 12 Este 17 Este 0 813.3 0.8 14
2020-01-12 09:00:00 3.7 7 Este 15 Este 0 813.1 0.9 4
2020-01-12 08:00:00 3.6 9 Este 21 Este 0 812.7 0.4 5
2020-01-12 07:00:00 3.5 13 Este 22 Este 0 812.5 -0.1 5
2020-01-12 06:00:00 3.5 9 Este 23 Este 0 812.2 -0.1 4
2020-01-12 05:00:00 3.6 12 Este 21 Este 0 812.3 -0.1 5
2020-01-12 04:00:00 2.9 11 Este 22 Este 0 812.6 0 6
2020-01-12 03:00:00 2.9 15 Este 21 Sudeste 0 812.3 -0.5 7
2020-01-12 02:00:00 3.3 13 Este 19 Este 0 812.4 -0.4 6
2020-01-12 01:00:00 2.9 10 Este 17 Este 0 812.6 -0.2 7
2020-01-12 00:00:00 2.7 14 Este 19 Este 0 812.8 0 7
2020-01-11 23:00:00 3.1 17 Este 21 Este 0 812.8 0 7
2020-01-11 22:00:00 2.9 13 Este 22 Sudeste 0 812.8 0.5 7
2020-01-11 21:00:00 3.9 15 Este 25 Sudeste 0 812.8 0.9 6
2020-01-11 20:00:00 3 12 Este 18 Este 0 812.8 1 7
2020-01-11 19:00:00 3.4 12 Este 22 Este 0 812.3 0.6 7
2020-01-11 18:00:00 4 18 Este 25 Este 0 811.9 0.1 6
2020-01-11 17:00:00 4.9 14 Este 25 Este 0 811.8 -0.3 7
2020-01-11 16:00:00 5.5 16 Este 33 Este 0 811.7 -1.2 9
2020-01-11 15:00:00 5.2 9 Este 21 Nordeste 0 811.8 -1.4 12
2020-01-11 14:00:00 4.7 15 Este 22 Este 0 812.1 -0.8 11
2020-01-11 13:00:00 4.9 15 Este 21 Este 0 812.9 0.6 11
2020-01-11 12:00:00 4.7 16 Este 29 Este 0 813.2 1.3 11
2020-01-11 11:00:00 3.7 18 Este 32 Este 0 812.9 1 13
2020-01-11 10:00:00 1.3 20 Este 29 Este 0 812.3 0.6 16
2020-01-11 09:00:00 0.9 21 Este 27 Este 0 811.9 0.3 16
2020-01-11 08:00:00 -0.1 22 Sudeste 25 Este 0 811.9 0.4 17
2020-01-11 07:00:00 -0.3 21 Este 25 Este 0 811.7 -0.2 16
2020-01-11 06:00:00 0.1 21 Este 28 Este 0 811.6 0 15
2020-01-11 05:00:00 0.9 24 Este 33 Este 0 811.5 -0.2 16
2020-01-11 04:00:00 -2.7 13 Este 28 Este 0 811.9 0.2 53
2020-01-11 03:00:00 1 22 Este 33 Este 0 811.6 -0.2 18
2020-01-11 02:00:00 1.1 24 Este 35 Este 0 811.7 0 22
2020-01-11 01:00:00 2.4 30 Este 42 Sudeste 0 811.7 0.4 15
2020-01-11 00:00:00 1.7 33 Este 40 Este 0 811.8 0.8 21
2020-01-10 23:00:00 -0.2 29 Este 43 Este 0 811.7 0.8 35
2020-01-10 22:00:00 -0.7 30 Este 43 Este 0 811.3 0.8 43
2020-01-10 21:00:00 -1.8 32 Este 51 Este 0 811 1.1 45
2020-01-10 20:00:00 -4.1 38 Este 50 Este 0 810.9 1.2 97
2020-01-10 19:00:00 -3.9 39 Este 50 Este 0 810.5 1 98
2020-01-10 18:00:00 -3.7 33 Este 45 Este 0 809.9 0.4 95
2020-01-10 17:00:00 -2.5 34 Este 45 Este 0 809.7 0.3 87
2020-01-10 16:00:00 -1.4 36 Este 46 Nordeste 0 809.5 -0.5 78
2020-01-10 15:00:00 -0.2 33 Este 52 Este 0 809.5 -0.7 67
2020-01-10 14:00:00 -0.4 34 Este 48 Este 0 809.4 -0.2 70
2020-01-10 13:00:00 -1.6 34 Este 45 Este 0 810 0.7 76
2020-01-10 12:00:00 -2.6 32 Este 44 Este 0 810.2 1.2 80
2020-01-10 11:00:00 -2.6 36 Este 46 Este 0 809.6 0.2 74
2020-01-10 10:00:00 -3.2 34 Sudeste 46 Este 0 809.3 0.6 69
2020-01-10 09:00:00 -3.7 32 Sudeste 41 Sudeste 0 809 0.6 73
2020-01-10 08:00:00 -4.1 12 Este 22 Nordeste 0 809.4 1 75
2020-01-10 07:00:00 -4.4 5 Este 24 Este 0 808.7 0 73
2020-01-10 06:00:00 -2.8 18 Este 26 Sudeste 0 808.4 -0.5 51
2020-01-10 05:00:00 -2 11 Sudeste 28 Norte 0 808.4 -0.6 34
2020-01-10 04:00:00 -1.7 10 Norte 26 Norte 0 808.7 -0.7 39
2020-01-10 03:00:00 -2.5 10 Este 25 Sudoeste 0 808.9 -0.7 50
2020-01-10 02:00:00 -3.6 6 Sudoeste 15 Nordeste 0 809 -0.3 99
2020-01-10 01:00:00 -2.6 8 Sudoeste 23 Sudoeste 0 809.4 0.3 100
2020-01-10 00:00:00 -1.7 19 Oeste 32 Oeste 0 809.6 0.3 --
2020-01-09 23:00:00 -0.4 24 Oeste 37 Sudoeste 0 809.3 -0.6 100
2020-01-09 22:00:00 0.7 28 Sudoeste 46 Sudoeste 0 809.1 -0.5 65
2020-01-09 21:00:00 1.8 24 Sudoeste 36 Oeste 0 809.3 -0.6 100
2020-01-09 20:00:00 2.2 21 Oeste 44 Sudoeste 0 809.9 0.2 98
2020-01-09 19:00:00 2.1 28 Oeste 44 Sudoeste 0 809.6 0.3 99
2020-01-09 18:00:00 3.4 21 Oeste 32 Oeste 0 809.9 -0.1 95
2020-01-09 17:00:00 5.1 21 Sudoeste 31 Sudoeste 0 809.7 -0.9 80
2020-01-09 16:00:00 6.4 17 Sudoeste 41 Oeste 0 809.3 -1.6 65
2020-01-09 15:00:00 6.3 22 Sudoeste 36 Sudoeste 0 810 -1.4 73
2020-01-09 14:00:00 7.6 17 Oeste 34 Oeste 0 810.6 -0.6 58
2020-01-09 13:00:00 5.6 18 Oeste 26 Oeste 0 810.9 0 74
2020-01-09 12:00:00 5.1 18 Oeste 23 Oeste 0 811.4 0.6 39
2020-01-09 11:00:00 6.2 14 Oeste 22 Sudoeste 0 811.2 0.7 46
2020-01-09 10:00:00 5.5 14 Sudoeste 24 Sur 0 810.9 0.2 65
2020-01-09 09:00:00 3.2 15 Sudoeste 26 Sudoeste 0 810.8 0.1 67
2020-01-09 08:00:00 3.4 16 Sudoeste 23 Sudoeste 0 810.5 -0.4 66
2020-01-09 07:00:00 3.4 13 Sudoeste 23 Sudoeste 0 810.7 -0.6 68
2020-01-09 06:00:00 4.6 18 Sudoeste 24 Sudoeste 0 810.7 -0.8 58
2020-01-09 05:00:00 5.6 15 Sudoeste 19 Sudoeste 0 810.9 -1 49
2020-01-09 04:00:00 5.3 14 Sudoeste 18 Sudoeste 0 811.3 -1 54
2020-01-09 03:00:00 3.6 10 Sur 13 Sur 0 811.5 -1.1 57
2020-01-09 02:00:00 2.7 7 Sur 17 Sudoeste 0 811.9 -0.9 60
2020-01-09 01:00:00 3 9 Sudoeste 14 Sudoeste 0 812.3 -0.4 39
2020-01-09 00:00:00 3 14 Sudoeste 16 Sudoeste 0 812.6 -0.1 37
2020-01-08 23:00:00 3.4 9 Sudoeste 14 Sudoeste 0 812.8 0 36
2020-01-08 22:00:00 3.3 9 Sudoeste 15 Sudoeste 0 812.7 -0.1 38
2020-01-08 21:00:00 3.4 9 Sur 12 Sudoeste 0 812.7 0 51
2020-01-08 20:00:00 3.5 7 Sur 9 Sur 0 812.8 0.1 51
2020-01-08 19:00:00 3.6 7 Sur 11 Sudeste 0 812.8 0.2 47
2020-01-08 18:00:00 4.8 8 Sudeste 10 Sudeste 0 812.7 0.1 41
2020-01-08 17:00:00 9.9 3 Sudeste 7 Este 0 812.7 -0.3 33
2020-01-08 16:00:00 12.4 3 Este 10 Noroeste 0 812.6 -1.1 29
2020-01-08 15:00:00 12.8 5 Nordeste 10 Nordeste 0 812.6 -1.8 27
2020-01-08 14:00:00 13.2 3 Nordeste 10 Norte 0 813 -1.6 17
2020-01-08 13:00:00 11.9 8 Este 11 Este 0 813.7 -0.6 18
2020-01-08 12:00:00 11.6 8 Este 14 Este 0 814.4 0.6 12
2020-01-08 11:00:00 8.8 12 Este 15 Este 0 814.6 0.9 13
2020-01-08 10:00:00 5.7 8 Este 11 Este 0 814.3 0.6 10
2020-01-08 09:00:00 3.5 8 Sur 13 Sur 0 813.8 -0.1 14
2020-01-08 08:00:00 4.2 12 Sudoeste 15 Sur 0 813.7 -0.3 13
2020-01-08 07:00:00 3.7 11 Sudoeste 17 Sudoeste 0 813.7 -0.7 18
2020-01-08 06:00:00 5 13 Sudoeste 17 Sudoeste 0 813.9 -0.7 17
2020-01-08 05:00:00 4.2 11 Sudoeste 15 Sudoeste 0 814 -0.7 19
2020-01-08 04:00:00 4.1 11 Sudoeste 15 Sur 0 814.4 -0.6 17
2020-01-08 03:00:00 3.7 11 Sudoeste 15 Sudoeste 0 814.6 -0.7 15
2020-01-08 02:00:00 4.8 12 Sudoeste 15 Sudoeste 0 814.7 -0.8 14
2020-01-08 01:00:00 3.6 10 Sur 12 Sur 0 815 -0.6 15
2020-01-08 00:00:00 4.1 9 Sur 13 Sur 0 815.3 -0.2 19
2020-01-07 23:00:00 3.3 8 Sur 10 Sur 0 815.5 0.1 23
2020-01-07 22:00:00 4 8 Sur 13 Sudeste 0 815.6 0.2 21
2020-01-07 21:00:00 4.6 10 Sudeste 13 Sudeste 0 815.5 0.3 14
2020-01-07 20:00:00 5.3 7 Sudeste 11 Sudeste 0 815.4 0.4 11
2020-01-07 19:00:00 5.8 7 Sudeste 12 Sudeste 0 815.4 0.5 12
2020-01-07 18:00:00 4.9 6 Sudeste 11 Sudeste 0 815.2 0.3 23
2020-01-07 17:00:00 8.6 2 Sur 9 Oeste 0 815 -0.3 23
2020-01-07 16:00:00 11.3 6 Norte 10 Nordeste 0 814.9 -0.8 19
2020-01-07 15:00:00 11.8 6 Norte 11 Nordeste 0 814.9 -1.2 18
2020-01-07 14:00:00 11.8 6 Norte 11 Oeste 0 815.3 -0.7 22
2020-01-07 13:00:00 10.8 8 Oeste 12 Oeste 0 815.7 0 14
2020-01-07 12:00:00 10.1 9 Oeste 12 Oeste 0 816.1 0.9 16
2020-01-07 11:00:00 9.5 9 Oeste 13 Oeste 0 816 1.3 20
2020-01-07 10:00:00 2.7 4 Sur 10 Sur 0 815.7 1 32
2020-01-07 09:00:00 2.1 6 Sur 12 Sudeste 0 815.2 0.5 30
2020-01-07 08:00:00 4.8 8 Sudeste 13 Sur 0 814.7 0 22
2020-01-07 07:00:00 4.8 10 Sudeste 13 Sudeste 0 814.7 0 23
2020-01-07 06:00:00 5.6 12 Sudeste 14 Sudeste 0 814.7 0 21
2020-01-07 05:00:00 5.1 10 Este 18 Sudeste 0 814.7 0.3 23
2020-01-07 04:00:00 5.4 14 Sudeste 17 Sudeste 0 814.7 0.2 23
2020-01-07 03:00:00 4.8 12 Sudeste 15 Sudeste 0 814.7 0.2 24
2020-01-07 02:00:00 5.3 12 Sudeste 15 Sudeste 0 814.4 -0.1 22
2020-01-07 01:00:00 5 10 Sudeste 15 Sudeste 0 814.5 0.1 27
2020-01-07 00:00:00 5 12 Sudeste 15 Sudeste 0 814.5 0.6 28
2020-01-06 23:00:00 4.6 10 Sudeste 16 Sudeste 0 814.5 0.9 30
2020-01-06 22:00:00 5.3 10 Este 15 Este 0 814.4 1.2 29
2020-01-06 21:00:00 3.7 10 Sudeste 15 Sudeste 0 813.9 1.2 34
2020-01-06 20:00:00 3.2 12 Sudeste 15 Este 0 813.6 1.2 36
2020-01-06 19:00:00 3.3 6 Sudeste 10 Sudeste 0 813.2 1.1 39
2020-01-06 18:00:00 4.5 6 Sudeste 11 Sudeste 0 812.7 0.8 36
2020-01-06 17:00:00 8.6 3 Sudeste 9 Nordeste 0 812.4 0.2 30
2020-01-06 16:00:00 10.3 5 Oeste 13 Oeste 0 812.1 -0.6 21
2020-01-06 15:00:00 11.3 6 Noroeste 12 Norte 0 811.9 -1.4 21
2020-01-06 14:00:00 11 6 Oeste 13 Oeste 0 812.2 -0.9 20
2020-01-06 13:00:00 11.2 4 Norte 12 Oeste 0 812.7 0.1 22
2020-01-06 12:00:00 10.2 4 Este 8 Este 0 813.3 1.2 23
2020-01-06 11:00:00 8.7 5 Este 10 Sur 0 813.1 1.3 26
2020-01-06 10:00:00 2.7 6 Sur 10 Sudeste 0 812.6 1.2 38